Time;durP1;ratioP1;P1;durP2;ratioP2;P2;SDS_P1;SDS_P2;PMS_P1;PMS_P2;Temp;Humidity;BMP_temperature;BMP_pressure;BME280_temperature;BME280_humidity;BME280_pressure;Samples;Min_cycle;Max_cycle;Signal;HPM_P1;HPM_P2
2023/04/26 00:01:16;;;;;;;;;6.50;6.00;;;;;11.17;54.35;99130.34;5070997;28;45510;-79
2023/04/26 00:03:41;;;;;;;;;7.00;6.75;;;;;11.17;54.29;99140.06;5077870;27;45591;-79
2023/04/26 00:06:09;;;;;;;;;6.75;6.50;;;;;11.15;55.25;99144.53;5078071;27;46342;-79
2023/04/26 00:08:37;;;;;;;;;4.75;4.00;;;;;11.06;54.61;99139.66;5069266;28;45581;-80
2023/04/26 00:11:03;;;;;;;;;6.00;6.00;;;;;11.02;54.47;99144.19;5094426;27;45481;-79
2023/04/26 00:13:28;;;;;;;;;5.00;5.00;;;;;10.99;55.02;99149.59;5078236;27;45414;-79
2023/04/26 00:15:53;;;;;;;;;6.50;6.25;;;;;10.95;55.08;99141.84;5075931;28;45579;-79
2023/04/26 00:18:19;;;;;;;;;5.00;4.75;;;;;10.93;54.49;99151.63;5072323;28;45549;-80
2023/04/26 00:20:44;;;;;;;;;5.25;5.25;;;;;10.93;55.07;99151.63;5078003;27;45706;-79
2023/04/26 00:23:10;;;;;;;;;4.75;4.25;;;;;10.91;54.81;99156.94;5076833;28;45450;-79
2023/04/26 00:25:36;;;;;;;;;6.50;6.00;;;;;10.89;55.07;99153.53;5077884;27;46370;-80
2023/04/26 00:28:02;;;;;;;;;5.75;5.75;;;;;10.87;55.57;99158.03;5078037;27;45479;-80
2023/04/26 00:30:28;;;;;;;;;5.75;5.00;;;;;10.84;55.69;99159.00;5076990;27;45555;-79
2023/04/26 00:32:53;;;;;;;;;7.50;6.00;;;;;10.82;56.88;99166.09;5070833;28;45392;-80
2023/04/26 00:35:19;;;;;;;;;7.00;7.00;;;;;10.80;57.43;99162.66;5077930;28;46444;-80
2023/04/26 00:37:45;;;;;;;;;6.00;6.00;;;;;10.79;56.73;99162.72;5078323;28;45428;-80
2023/04/26 00:40:11;;;;;;;;;6.50;6.00;;;;;10.74;56.25;99159.41;5076923;28;45554;-80
2023/04/26 00:42:38;;;;;;;;;4.50;4.50;;;;;10.71;55.63;99156.91;5076655;28;45523;-80
2023/04/26 00:45:06;;;;;;;;;5.75;5.25;;;;;10.69;56.02;99156.13;5071102;28;46558;-79
2023/04/26 00:47:32;;;;;;;;;5.00;5.00;;;;;10.66;56.15;99153.59;5075965;28;45419;-80
2023/04/26 00:49:59;;;;;;;;;7.25;5.75;;;;;10.67;56.23;99164.09;5077687;27;45294;-79
2023/04/26 00:52:26;;;;;;;;;6.00;6.00;;;;;10.68;56.26;99171.06;5077643;28;45479;-79
2023/04/26 00:54:52;;;;;;;;;8.50;7.50;;;;;10.67;55.90;99177.28;5077593;27;45493;-79
2023/04/26 00:57:18;;;;;;;;;6.00;4.75;;;;;10.67;55.42;99168.50;5076379;27;45397;-79
2023/04/26 00:59:43;;;;;;;;;5.75;5.75;;;;;10.65;55.58;99178.25;5075820;27;45381;-79
2023/04/26 01:02:08;;;;;;;;;5.00;2.25;;;;;10.65;55.54;99180.88;5064982;28;45484;-79
2023/04/26 01:04:36;;;;;;;;;6.75;6.00;;;;;10.65;55.93;99178.25;5075508;28;48074;-79
2023/04/26 01:07:02;;;;;;;;;7.75;7.25;;;;;10.64;56.31;99180.03;5077187;27;45531;-79
2023/04/26 01:09:30;;;;;;;;;10.25;7.50;;;;;10.63;56.52;99186.22;5077428;27;45408;-79
2023/04/26 01:11:57;;;;;;;;;10.50;10.00;;;;;10.62;56.26;99189.75;5075457;28;45656;-79
2023/04/26 01:14:23;;;;;;;;;8.75;7.25;;;;;10.62;56.35;99191.53;5072537;28;47240;-80
2023/04/26 01:16:49;;;;;;;;;7.00;6.33;;;;;10.61;56.31;99192.47;5072264;28;45382;-79
2023/04/26 01:19:15;;;;;;;;;7.75;7.75;;;;;10.60;56.84;99182.81;5069213;27;45519;-79
2023/04/26 01:21:41;;;;;;;;;7.00;7.00;;;;;10.58;56.46;99187.31;5071996;28;45514;-79
2023/04/26 01:24:11;;;;;;;;;11.50;10.00;;;;;10.57;56.93;99190.84;5077298;27;45560;-79
2023/04/26 01:26:45;;;;;;;;;9.33;9.33;;;;;10.52;57.03;99188.41;5068898;28;45468;-79
2023/04/26 01:29:20;;;;;;;;;9.25;8.00;;;;;10.51;57.25;99199.88;5092861;27;45398;-79
2023/04/26 01:31:47;;;;;;;;;8.50;7.00;;;;;10.49;57.31;99207.84;5076565;28;45409;-79
2023/04/26 01:34:13;;;;;;;;;8.00;8.00;;;;;10.47;57.41;99200.91;5070577;28;47475;-79
2023/04/26 01:36:38;;;;;;;;;11.00;7.25;;;;;10.43;57.54;99194.88;5075136;28;45387;-79
2023/04/26 01:39:04;;;;;;;;;7.00;7.00;;;;;10.41;57.47;99195.84;5077047;28;45472;-79
2023/04/26 01:41:29;;;;;;;;;11.75;6.75;;;;;10.37;57.37;99195.13;5076490;27;45383;-79
2023/04/26 01:43:55;;;;;;;;;7.00;7.00;;;;;10.35;57.58;99185.56;5074844;28;46780;-79
2023/04/26 01:46:21;;;;;;;;;8.50;7.25;;;;;10.32;57.79;99191.81;5075946;27;45359;-80
2023/04/26 01:48:47;;;;;;;;;5.00;5.00;;;;;10.30;57.70;99187.50;5076905;27;45335;-79
2023/04/26 01:51:12;;;;;;;;;6.75;6.50;;;;;10.28;57.89;99187.56;5074798;28;45342;-79
2023/04/26 01:53:38;;;;;;;;;5.50;5.50;;;;;10.27;58.11;99185.84;5076556;27;45426;-79
2023/04/26 01:56:04;;;;;;;;;8.00;7.00;;;;;10.27;58.19;99184.97;5076484;27;45353;-80
2023/04/26 01:58:30;;;;;;;;;4.75;3.25;;;;;10.26;58.53;99189.41;5075116;28;45404;-79
2023/04/26 02:01:03;;;;;;;;;8.67;6.67;;;;;10.23;58.62;99192.13;5068402;27;45369;-79
2023/04/26 02:03:28;;;;;;;;;8.67;6.67;;;;;10.18;58.66;99191.44;5075483;28;45437;-80
2023/04/26 02:05:54;;;;;;;;;5.00;5.00;;;;;10.15;58.46;99199.47;5075094;27;45435;-79
2023/04/26 02:08:19;;;;;;;;;10.67;8.67;;;;;10.14;58.72;99184.56;5074882;28;45415;-80
2023/04/26 02:10:44;;;;;;;;;9.00;9.00;;;;;10.10;58.73;99186.44;5076443;27;45289;-80
2023/04/26 02:13:10;;;;;;;;;9.75;7.75;;;;;10.07;58.83;99189.19;5069330;27;46326;-80
2023/04/26 02:15:36;;;;;;;;;6.25;6.25;;;;;10.08;58.72;99192.69;5074155;28;45345;-80
2023/04/26 02:18:01;;;;;;;;;10.00;9.33;;;;;10.07;59.08;99188.31;5074395;28;45646;-80
2023/04/26 02:20:26;;;;;;;;;8.00;6.50;;;;;10.05;59.30;99183.13;5075084;27;45496;-79
2023/04/26 02:22:52;;;;;;;;;6.33;6.33;;;;;10.05;58.95;99183.13;5074539;27;46337;-79
2023/04/26 02:25:17;;;;;;;;;9.67;7.67;;;;;10.04;59.61;99183.19;5075999;27;45420;-79
2023/04/26 02:27:43;;;;;;;;;9.33;6.67;;;;;10.03;59.31;99181.47;5075932;28;45427;-79
2023/04/26 02:30:08;;;;;;;;;11.00;7.00;;;;;10.01;59.45;99184.16;5074369;28;45574;-79
2023/04/26 02:32:34;;;;;;;;;7.00;6.67;;;;;10.00;59.04;99186.84;5070482;28;48101;-80
2023/04/26 02:34:59;;;;;;;;;6.00;6.00;;;;;9.97;59.44;99189.59;5072884;28;45529;-79
2023/04/26 02:37:25;;;;;;;;;9.25;9.00;;;;;9.96;59.42;99183.47;5075211;27;45435;-79
2023/04/26 02:39:51;;;;;;;;;9.00;6.75;;;;;9.94;59.19;99187.94;5075201;28;45348;-79
2023/04/26 02:42:16;;;;;;;;;5.00;5.00;;;;;9.92;59.59;99186.25;5074578;28;48231;-79
2023/04/26 02:44:42;;;;;;;;;5.50;4.25;;;;;9.90;59.63;99182.81;5076077;27;45392;-79
2023/04/26 02:47:08;;;;;;;;;6.00;6.00;;;;;9.87;59.47;99182.94;5076258;27;45362;-79
2023/04/26 02:49:33;;;;;;;;;8.33;8.33;;;;;9.83;59.66;99173.44;5075409;28;45384;-80
2023/04/26 02:51:59;;;;;;;;;10.25;10.25;;;;;9.82;59.85;99177.84;5090737;27;48060;-79
2023/04/26 02:54:25;;;;;;;;;10.00;10.00;;;;;9.78;59.92;99174.47;5075327;27;45385;-79
2023/04/26 02:56:50;;;;;;;;;10.00;10.00;;;;;9.78;59.66;99173.59;5070987;28;45399;-79
2023/04/26 02:59:16;;;;;;;;;9.00;9.00;;;;;9.75;59.81;99169.28;5072680;28;45575;-79
2023/04/26 03:01:42;;;;;;;;;9.67;9.67;;;;;9.73;59.58;99171.13;5075643;27;46509;-79
2023/04/26 03:04:07;;;;;;;;;7.67;6.67;;;;;9.71;59.56;99162.44;5075489;27;45423;-79
2023/04/26 03:06:33;;;;;;;;;8.33;6.00;;;;;9.68;59.68;99162.56;5075691;27;45416;-81
2023/04/26 03:08:58;;;;;;;;;7.67;7.67;;;;;9.66;60.08;99160.88;5075574;28;45492;-80
2023/04/26 03:11:25;;;;;;;;;8.67;7.33;;;;;9.63;60.00;99158.34;5062807;28;46512;-80
2023/04/26 03:13:50;;;;;;;;;7.00;6.75;;;;;9.64;60.06;99178.50;5072279;28;45359;-80
2023/04/26 03:16:18;;;;;;;;;11.75;8.50;;;;;9.61;60.12;99171.56;5074450;28;45369;-79
2023/04/26 03:18:44;;;;;;;;;9.00;6.00;;;;;9.60;60.26;99171.63;5075477;28;45526;-80
2023/04/26 03:21:09;;;;;;;;;9.00;9.00;;;;;9.59;60.61;99172.53;5073757;28;47047;-79
2023/04/26 03:23:34;;;;;;;;;4.33;4.33;;;;;9.55;60.49;99170.94;5075246;27;45393;-79
2023/04/26 03:26:00;;;;;;;;;5.33;5.33;;;;;9.52;60.55;99166.63;5075654;27;45373;-79
2023/04/26 03:28:25;;;;;;;;;8.67;7.00;;;;;9.49;60.47;99169.38;5075209;28;45565;-79
2023/04/26 03:30:51;;;;;;;;;9.75;9.25;;;;;9.47;60.77;99178.22;5075304;28;46062;-79
2023/04/26 03:33:16;;;;;;;;;10.33;6.00;;;;;9.44;60.55;99177.41;5074859;27;45302;-79
2023/04/26 03:35:42;;;;;;;;;12.00;12.00;;;;;9.41;60.92;99174.88;5075045;28;46064;-79
2023/04/26 03:38:08;;;;;;;;;9.00;6.67;;;;;9.40;60.94;99165.28;5073503;28;45403;-79
2023/04/26 03:40:33;;;;;;;;;9.33;9.00;;;;;9.39;61.29;99167.97;5075333;27;45413;-79
2023/04/26 03:42:58;;;;;;;;;10.00;9.00;;;;;9.38;61.35;99168.91;5075149;28;45435;-80
2023/04/26 03:45:25;;;;;;;;;8.50;7.00;;;;;9.36;61.51;99170.72;5073942;28;45418;-79
2023/04/26 03:47:51;;;;;;;;;7.33;7.33;;;;;9.35;61.39;99169.00;5073847;28;45430;-79
2023/04/26 03:50:16;;;;;;;;;12.00;10.00;;;;;9.34;61.77;99170.78;5073537;28;48263;-79
2023/04/26 03:52:42;;;;;;;;;10.00;9.00;;;;;9.31;61.67;99168.25;5074778;27;45273;-80
2023/04/26 03:55:09;;;;;;;;;13.33;9.00;;;;;9.29;61.70;99170.06;5074999;27;45696;-79
2023/04/26 03:57:34;;;;;;;;;9.67;9.33;;;;;9.27;62.16;99168.38;5074846;28;45310;-79
2023/04/26 04:00:00;;;;;;;;;9.50;9.00;;;;;9.26;62.14;99179.81;5074955;27;45596;-79
2023/04/26 04:02:25;;;;;;;;;11.00;9.00;;;;;9.24;62.11;99169.34;5074956;27;45330;-79
2023/04/26 04:04:51;;;;;;;;;11.00;10.00;;;;;9.24;62.48;99171.13;5074721;28;45380;-79
2023/04/26 04:07:16;;;;;;;;;9.00;9.00;;;;;9.21;62.46;99168.63;5074704;28;45429;-80
2023/04/26 04:09:41;;;;;;;;;10.67;7.33;;;;;9.19;62.49;99176.56;5082826;27;47040;-79
2023/04/26 04:12:07;;;;;;;;;9.50;8.75;;;;;9.18;62.69;99177.47;5074668;27;45447;-79
2023/04/26 04:14:32;;;;;;;;;10.00;9.00;;;;;9.13;62.56;99179.38;5074548;28;45380;-79
2023/04/26 04:16:58;;;;;;;;;13.25;11.00;;;;;9.10;62.68;99177.69;5074714;28;45366;-79
2023/04/26 04:19:23;;;;;;;;;11.00;10.67;;;;;9.09;62.77;99178.63;5074323;28;46517;-80
2023/04/26 04:21:49;;;;;;;;;10.75;8.25;;;;;9.08;62.81;99178.66;5090156;27;45482;-79
2023/04/26 04:24:15;;;;;;;;;9.00;9.00;;;;;9.07;62.29;99185.69;5074914;27;45439;-79
2023/04/26 04:26:40;;;;;;;;;10.00;9.75;;;;;9.04;62.45;99185.81;5073075;28;45441;-79
2023/04/26 04:29:07;;;;;;;;;12.00;10.33;;;;;9.05;62.30;99197.16;5074571;27;46522;-79
2023/04/26 04:31:37;;;;;;;;;10.00;10.00;;;;;9.06;62.18;99202.38;5074388;28;45250;-79
2023/04/26 04:34:02;;;;;;;;;11.33;11.00;;;;;9.05;62.11;99200.66;5074633;27;45480;-79
2023/04/26 04:36:28;;;;;;;;;10.00;10.00;;;;;9.02;62.38;99198.16;5073958;28;45350;-79
2023/04/26 04:38:53;;;;;;;;;10.00;10.00;;;;;9.00;62.57;99207.84;5074457;27;46045;-79
2023/04/26 04:41:22;;;;;;;;;11.00;9.00;;;;;8.99;62.62;99203.50;5074153;28;45442;-79
2023/04/26 04:43:47;;;;;;;;;11.00;6.33;;;;;8.97;62.65;99205.31;5074343;28;45305;-79
2023/04/26 04:46:13;;;;;;;;;12.67;10.00;;;;;8.97;62.79;99207.94;5075251;28;45381;-79
2023/04/26 04:48:38;;;;;;;;;9.67;8.33;;;;;8.97;63.06;99210.56;5077536;27;45533;-80
2023/04/26 04:51:04;;;;;;;;;10.33;10.00;;;;;8.99;63.29;99213.16;5076838;27;45295;-79
2023/04/26 04:53:29;;;;;;;;;9.00;8.00;;;;;8.96;63.66;99214.13;5077510;27;45355;-80
2023/04/26 04:55:55;;;;;;;;;9.00;9.00;;;;;8.97;63.57;99217.59;5077104;28;45401;-80
2023/04/26 04:58:21;;;;;;;;;5.00;5.00;;;;;8.97;63.53;99223.72;5076519;28;46135;-79
2023/04/26 05:00:47;;;;;;;;;11.33;10.33;;;;;9.01;63.49;99230.63;5076242;27;45386;-79
2023/04/26 05:03:15;;;;;;;;;9.00;6.67;;;;;9.00;63.18;99233.28;5077690;28;45392;-78
2023/04/26 05:05:41;;;;;;;;;16.00;12.00;;;;;8.98;62.83;99233.34;5076619;27;45448;-81
2023/04/26 05:08:09;;;;;;;;;11.33;10.00;;;;;8.97;62.84;99231.63;5092119;27;47188;-81
2023/04/26 05:10:34;;;;;;;;;10.00;9.00;;;;;8.97;63.52;99236.88;5075941;28;45436;-81
2023/04/26 05:13:00;;;;;;;;;15.67;13.33;;;;;8.98;63.17;99233.34;5077023;28;45408;-81
2023/04/26 05:15:26;;;;;;;;;16.67;11.67;;;;;9.01;63.41;99241.13;5077037;27;45383;-79
2023/04/26 05:17:51;;;;;;;;;11.33;9.67;;;;;9.06;63.57;99246.22;5076966;27;45522;-79
2023/04/26 05:20:17;;;;;;;;;12.67;12.67;;;;;9.10;63.71;99247.84;5076416;28;45428;-79
2023/04/26 05:22:42;;;;;;;;;8.67;8.33;;;;;9.13;63.30;99250.38;5076555;27;45479;-79
2023/04/26 05:25:09;;;;;;;;;9.00;9.00;;;;;9.19;62.94;99251.97;5088611;27;45355;-79
2023/04/26 05:27:36;;;;;;;;;17.00;13.00;;;;;9.22;62.82;99257.97;5067939;28;45424;-79
2023/04/26 05:30:02;;;;;;;;;12.67;11.67;;;;;9.24;63.35;99258.78;5088561;27;45538;-79
2023/04/26 05:32:28;;;;;;;;;12.00;12.00;;;;;9.26;62.91;99258.72;5076155;28;45350;-79
2023/04/26 05:34:53;;;;;;;;;17.33;12.33;;;;;9.27;63.17;99260.47;5076054;28;45569;-79
2023/04/26 05:37:18;;;;;;;;;15.33;14.67;;;;;9.29;63.54;99262.13;5076112;27;45396;-79
2023/04/26 05:39:44;;;;;;;;;14.00;11.67;;;;;9.30;63.50;99260.34;5075141;28;45384;-80
2023/04/26 05:42:09;;;;;;;;;16.00;14.00;;;;;9.29;63.45;99264.75;5075239;28;45328;-81
2023/04/26 05:44:35;;;;;;;;;13.00;12.00;;;;;9.34;63.55;99268.13;5075592;27;45219;-65
2023/04/26 05:47:00;;;;;;;;;20.00;16.33;;;;;9.41;63.72;99269.63;5074989;27;46295;-65
2023/04/26 05:49:26;;;;;;;;;9.67;9.67;;;;;9.47;63.60;99267.69;5074695;27;45337;-66
2023/04/26 05:51:51;;;;;;;;;9.00;8.33;;;;;9.50;63.45;99262.34;5075459;27;45372;-66
2023/04/26 05:54:17;;;;;;;;;11.25;10.75;;;;;9.50;63.17;99268.47;5073613;28;45596;-66
2023/04/26 05:56:42;;;;;;;;;11.00;10.00;;;;;9.54;63.09;99267.47;5074270;27;45960;-66
2023/04/26 05:59:08;;;;;;;;;17.00;11.00;;;;;9.58;63.08;99265.56;5073683;27;45427;-66
2023/04/26 06:01:33;;;;;;;;;13.67;13.33;;;;;9.62;63.10;99265.41;5075122;27;45365;-66
2023/04/26 06:03:59;;;;;;;;;17.00;13.00;;;;;9.65;63.25;99261.81;5074745;27;45558;-67
2023/04/26 06:06:25;;;;;;;;;15.33;12.00;;;;;9.69;63.21;99268.72;5074228;27;47035;-66
2023/04/26 06:08:51;;;;;;;;;11.67;10.00;;;;;9.71;62.95;99266.88;5074646;27;45430;-68
2023/04/26 06:11:17;;;;;;;;;11.00;11.00;;;;;9.73;63.13;99265.91;5074963;27;45562;-66
2023/04/26 06:13:42;;;;;;;;;19.00;13.33;;;;;9.77;63.05;99266.66;5074942;27;45361;-66
2023/04/26 06:16:08;;;;;;;;;14.33;13.00;;;;;9.83;63.08;99278.75;5074192;27;45458;-66
2023/04/26 06:18:33;;;;;;;;;10.67;10.67;;;;;9.86;62.77;99274.25;5074966;27;45471;-66
2023/04/26 06:20:58;;;;;;;;;14.33;11.00;;;;;9.91;62.80;99274.94;5074401;27;45646;-66
2023/04/26 06:23:24;;;;;;;;;12.50;11.00;;;;;9.95;62.57;99273.06;5075105;27;45427;-66
2023/04/26 06:25:49;;;;;;;;;11.67;11.33;;;;;10.00;62.51;99276.41;5074603;27;46372;-66
2023/04/26 06:28:15;;;;;;;;;13.67;10.67;;;;;10.04;62.45;99275.38;5074526;27;45345;-60
2023/04/26 06:30:41;;;;;;;;;13.00;11.67;;;;;10.07;62.12;99273.47;5074978;27;45420;-60
2023/04/26 06:33:07;;;;;;;;;10.00;9.00;;;;;10.13;61.93;99269.78;5074403;27;45446;-60
2023/04/26 06:35:38;;;;;;;;;14.00;10.75;;;;;10.19;61.80;99271.38;5088539;27;47796;-60
2023/04/26 06:38:03;;;;;;;;;14.00;12.00;;;;;10.30;61.90;99266.56;5073439;28;45456;-61
2023/04/26 06:40:29;;;;;;;;;13.33;13.33;;;;;10.43;61.71;99268.69;5074721;27;45261;-61
2023/04/26 06:42:56;;;;;;;;;12.00;10.00;;;;;10.59;61.45;99262.84;5074216;28;45352;-59
2023/04/26 06:45:21;;;;;;;;;14.67;14.00;;;;;10.65;61.12;99266.09;5073724;27;47316;-60
2023/04/26 06:47:46;;;;;;;;;10.50;5.75;;;;;10.66;60.73;99262.56;5073558;28;45337;-61
2023/04/26 06:50:12;;;;;;;;;18.00;14.00;;;;;10.68;60.70;99263.34;5074443;27;45496;-61
2023/04/26 06:52:37;;;;;;;;;13.75;12.00;;;;;10.72;60.70;99262.34;5073705;27;45472;-60
2023/04/26 06:55:03;;;;;;;;;13.00;12.75;;;;;10.76;60.54;99265.69;5074308;27;45586;-60
2023/04/26 06:57:29;;;;;;;;;12.25;11.50;;;;;10.80;60.17;99265.50;5074112;27;45441;-60
2023/04/26 06:59:54;;;;;;;;;11.33;10.67;;;;;10.86;60.11;99260.94;5074327;27;45410;-59
2023/04/26 07:02:21;;;;;;;;;13.00;11.67;;;;;10.91;60.01;99261.59;5074605;27;45591;-59
2023/04/26 07:04:47;;;;;;;;;13.00;13.00;;;;;10.95;59.64;99258.78;5074215;27;45516;-60
2023/04/26 07:07:13;;;;;;;;;16.25;15.00;;;;;10.98;59.53;99252.53;5074157;27;45318;-59
2023/04/26 07:09:38;;;;;;;;;14.00;12.75;;;;;11.01;59.44;99245.34;5073884;27;45411;-60
2023/04/26 07:12:04;;;;;;;;;16.00;13.75;;;;;11.07;58.97;99254.78;5074353;27;45457;-60
2023/04/26 07:14:29;;;;;;;;;16.25;14.00;;;;;11.14;58.97;99259.78;5074389;27;45477;-61
2023/04/26 07:16:55;;;;;;;;;15.50;12.00;;;;;11.21;58.67;99248.97;5072685;28;45337;-60
2023/04/26 07:19:20;;;;;;;;;17.67;13.67;;;;;11.27;58.59;99246.94;5073531;27;45379;-59
2023/04/26 07:21:45;;;;;;;;;7.00;5.25;;;;;11.33;58.26;99249.34;5074181;27;45321;-60
2023/04/26 07:24:12;;;;;;;;;12.00;10.50;;;;;11.40;58.20;99244.63;5074398;27;46329;-60
2023/04/26 07:26:37;;;;;;;;;12.00;10.75;;;;;11.46;57.86;99245.25;5073903;27;45448;-59
2023/04/26 07:29:03;;;;;;;;;10.25;10.25;;;;;11.55;57.41;99244.03;5074073;27;45632;-60
2023/04/26 07:31:30;;;;;;;;;8.25;6.75;;;;;11.59;57.44;99231.53;5074126;27;45498;-60
2023/04/26 07:33:56;;;;;;;;;13.25;9.00;;;;;11.65;57.20;99234.78;5073760;27;45543;-60
2023/04/26 07:36:21;;;;;;;;;13.75;13.25;;;;;11.70;57.13;99238.09;5073578;27;45520;-59
2023/04/26 07:38:47;;;;;;;;;14.75;14.00;;;;;11.76;56.87;99229.91;5074146;27;45443;-60
2023/04/26 07:41:15;;;;;;;;;11.00;10.75;;;;;11.82;56.64;99234.09;5073600;27;45479;-61
2023/04/26 07:43:40;;;;;;;;;9.00;9.00;;;;;11.86;56.19;99233.03;5073680;27;45413;-60
2023/04/26 07:46:05;;;;;;;;;7.50;4.50;;;;;11.91;56.00;99228.38;5073451;27;45404;-60
2023/04/26 07:48:31;;;;;;;;;8.25;7.00;;;;;11.96;55.76;99223.78;5073485;27;45447;-59
2023/04/26 07:51:05;;;;;;;;;8.25;8.00;;;;;12.02;55.61;99223.50;5073199;27;45364;-60
2023/04/26 07:53:30;;;;;;;;;8.50;8.25;;;;;12.09;55.00;99216.16;5073426;27;45388;-59
2023/04/26 07:55:56;;;;;;;;;11.50;10.00;;;;;12.15;54.93;99219.38;5072980;27;45410;-59
2023/04/26 07:58:21;;;;;;;;;10.00;8.25;;;;;12.19;54.13;99218.34;5073282;27;45470;-61
2023/04/26 08:00:47;;;;;;;;;7.50;7.50;;;;;12.23;53.99;99214.59;5073316;28;45459;-59
2023/04/26 08:03:16;;;;;;;;;10.25;9.25;;;;;12.27;53.87;99214.47;5073738;27;46204;-60
2023/04/26 08:05:42;;;;;;;;;9.75;8.00;;;;;12.29;53.35;99217.91;5071573;28;45428;-59
2023/04/26 08:08:07;;;;;;;;;6.25;5.50;;;;;12.33;53.39;99211.56;5073770;28;45380;-59
2023/04/26 08:10:33;;;;;;;;;3.00;1.00;;;;;12.37;53.27;99211.34;5073135;27;45433;-59
2023/04/26 08:13:02;;;;;;;;;7.25;6.75;;;;;12.44;52.98;99212.78;5073282;27;46508;-60
2023/04/26 08:15:28;;;;;;;;;9.75;9.25;;;;;12.51;52.82;99208.94;5073444;27;45422;-59
2023/04/26 08:17:53;;;;;;;;;8.00;7.75;;;;;12.58;52.95;99215.63;5072782;27;45397;-59
2023/04/26 08:20:19;;;;;;;;;11.00;9.00;;;;;12.62;52.88;99208.41;5072462;27;45560;-59
2023/04/26 08:22:45;;;;;;;;;8.00;8.00;;;;;12.65;52.64;99212.72;5076935;27;45578;-59
2023/04/26 08:25:11;;;;;;;;;9.75;8.00;;;;;12.68;52.38;99212.56;5076876;28;45376;-60
2023/04/26 08:27:36;;;;;;;;;9.50;7.00;;;;;12.71;52.06;99210.66;5076130;27;45472;-60
2023/04/26 08:30:03;;;;;;;;;9.25;9.00;;;;;12.73;52.23;99213.22;5076498;28;45514;-60
2023/04/26 08:32:28;;;;;;;;;7.50;7.50;;;;;12.76;51.99;99213.91;5076295;27;46162;-60
2023/04/26 08:34:54;;;;;;;;;9.75;7.75;;;;;12.85;52.01;99217.91;5075698;27;45348;-59
2023/04/26 08:37:19;;;;;;;;;10.75;9.50;;;;;12.89;52.01;99217.72;5076553;28;45335;-59
2023/04/26 08:39:45;;;;;;;;;11.25;9.00;;;;;12.94;51.70;99217.47;5076202;27;45420;-59
2023/04/26 08:42:15;;;;;;;;;7.00;7.00;;;;;12.98;51.84;99218.19;5076394;28;45555;-60
2023/04/26 08:44:42;;;;;;;;;8.25;8.00;;;;;13.03;51.32;99219.69;5076010;27;45454;-59
2023/04/26 08:47:21;;;;;;;;;7.75;7.50;;;;;13.10;51.78;99223.72;5076225;27;45543;-59
2023/04/26 08:49:58;;;;;;;;;8.75;8.00;;;;;13.16;51.65;99220.81;5075959;27;45342;-59
2023/04/26 08:52:27;;;;;;;;;9.50;8.00;;;;;13.21;51.54;99221.47;5075971;27;45597;-59
2023/04/26 08:54:53;;;;;;;;;7.75;7.00;;;;;13.26;51.32;99224.72;5076648;28;45678;-59
2023/04/26 08:57:21;;;;;;;;;8.25;8.25;;;;;13.29;51.61;99229.00;5076680;27;45258;-59
2023/04/26 08:59:47;;;;;;;;;8.75;8.00;;;;;13.31;51.40;99221.00;5076614;27;45540;-60
2023/04/26 09:02:17;;;;;;;;;7.25;6.25;;;;;13.34;51.27;99211.13;5075952;27;45427;-60
2023/04/26 09:04:44;;;;;;;;;9.00;7.75;;;;;13.39;50.94;99214.41;5075820;27;45377;-59
2023/04/26 09:07:18;;;;;;;;;8.50;8.50;;;;;13.44;50.91;99217.66;5076465;27;45345;-60
2023/04/26 09:09:48;;;;;;;;;8.25;7.00;;;;;13.49;50.41;99210.34;5076115;28;45312;-60
2023/04/26 09:12:17;;;;;;;;;7.00;7.00;;;;;13.57;50.00;99205.50;5075706;28;46513;-60
2023/04/26 09:14:43;;;;;;;;;6.00;5.50;;;;;13.68;49.43;99204.97;5075950;27;45455;-60
2023/04/26 09:17:44;;;;;;;;;7.00;7.00;;;;;13.80;49.23;99206.13;5074734;28;45527;-60
2023/04/26 09:20:27;;;;;;;;;6.75;6.75;;;;;13.89;48.84;99208.31;5032836;28;45593;-60
2023/04/26 09:23:07;;;;;;;;;7.25;6.00;;;;;13.95;48.47;99200.88;5071793;27;46255;-60
2023/04/26 09:25:33;;;;;;;;;10.25;7.75;;;;;14.03;47.82;99200.50;5076244;28;45387;-60
2023/04/26 09:27:59;;;;;;;;;7.75;7.00;;;;;14.11;48.05;99203.56;5074231;28;45356;-60
2023/04/26 09:30:27;;;;;;;;;8.00;6.75;;;;;14.20;47.91;99196.94;5075234;28;45383;-60
2023/04/26 09:32:53;;;;;;;;;7.00;6.00;;;;;14.27;47.98;99193.00;5074998;27;45451;-60
2023/04/26 09:35:28;;;;;;;;;3.25;3.25;;;;;14.29;47.08;99191.97;5073893;27;45419;-60
2023/04/26 09:37:57;;;;;;;;;7.00;7.00;;;;;14.27;47.17;99190.34;5075690;27;45443;-60
2023/04/26 09:40:24;;;;;;;;;7.25;6.00;;;;;14.26;47.17;99192.16;5075572;27;45357;-60
2023/04/26 09:43:04;;;;;;;;;6.00;6.00;;;;;14.29;46.65;99191.13;5075272;27;45918;-60
2023/04/26 09:45:31;;;;;;;;;7.00;6.50;;;;;14.33;46.96;99187.38;5075533;27;45400;-61
2023/04/26 09:48:24;;;;;;;;;5.25;5.00;;;;;14.40;46.45;99178.19;5073821;28;45696;-61
2023/04/26 09:50:55;;;;;;;;;8.50;5.75;;;;;14.48;46.64;99180.41;5073646;27;45478;-61
2023/04/26 09:53:36;;;;;;;;;5.75;4.75;;;;;14.50;46.20;99182.03;5075201;28;46461;-61
2023/04/26 09:56:09;;;;;;;;;5.25;5.25;;;;;14.52;45.66;99179.31;5075498;27;45500;-60
2023/04/26 09:58:56;;;;;;;;;5.00;5.00;;;;;14.54;45.72;99177.44;5076063;27;45383;-61
2023/04/26 10:01:22;;;;;;;;;6.00;4.75;;;;;14.59;45.32;99173.56;5075796;27;45431;-60
2023/04/26 10:03:48;;;;;;;;;8.00;6.00;;;;;14.65;45.43;99167.94;5078327;27;46651;-59
2023/04/26 10:06:14;;;;;;;;;9.00;6.25;;;;;14.75;45.30;99172.69;5073526;28;45395;-60
2023/04/26 10:08:40;;;;;;;;;7.00;6.00;;;;;14.82;45.06;99166.13;5075067;27;45499;-60
2023/04/26 10:11:06;;;;;;;;;5.00;4.00;;;;;14.89;45.15;99160.38;5075238;27;45451;-59
2023/04/26 10:13:32;;;;;;;;;4.75;4.75;;;;;14.97;45.59;99163.44;5074700;27;45381;-61
2023/04/26 10:16:00;;;;;;;;;6.75;6.50;;;;;15.06;45.17;99159.41;5075116;27;45444;-59
2023/04/26 10:18:26;;;;;;;;;5.50;5.50;;;;;15.11;44.68;99162.66;5075294;27;45455;-60
2023/04/26 10:20:56;;;;;;;;;5.00;5.00;;;;;15.19;44.69;99155.09;5074927;27;45448;-59
2023/04/26 10:23:26;;;;;;;;;3.25;2.50;;;;;15.24;44.40;99147.72;5074511;27;45707;-59
2023/04/26 10:25:53;;;;;;;;;8.00;6.00;;;;;15.34;44.18;99140.06;5074959;27;45344;-60
2023/04/26 10:28:44;;;;;;;;;5.75;5.75;;;;;15.44;44.35;99129.72;5074504;28;45402;-59
2023/04/26 10:31:10;;;;;;;;;8.00;7.75;;;;;15.53;44.43;99130.06;5072885;28;45400;-60
2023/04/26 10:33:36;;;;;;;;;8.00;7.00;;;;;15.63;44.39;99125.06;5074526;27;45450;-60
2023/04/26 10:36:05;;;;;;;;;4.75;4.75;;;;;15.74;43.73;99119.97;5073868;28;45524;-60
2023/04/26 10:38:31;;;;;;;;;6.50;6.00;;;;;15.82;43.65;99114.16;5074533;27;45363;-59
2023/04/26 10:41:36;;;;;;;;;4.25;4.00;;;;;15.85;43.47;99106.00;5074194;27;45512;-59
2023/04/26 10:44:40;;;;;;;;;5.00;4.00;;;;;15.93;42.27;99099.25;5073792;27;46138;-59
2023/04/26 10:47:20;;;;;;;;;4.00;4.00;;;;;15.99;42.11;99096.22;5031393;28;45502;-59
2023/04/26 10:49:47;;;;;;;;;1.00;1.00;;;;;16.06;41.23;99096.69;5031490;28;45346;-60
2023/04/26 10:52:19;;;;;;;;;2.50;2.50;;;;;16.12;41.57;99096.28;5055637;27;45490;-60
2023/04/26 10:54:49;;;;;;;;;4.75;3.25;;;;;16.17;40.88;99088.03;5074057;27;46617;-59
2023/04/26 10:57:15;;;;;;;;;6.60;5.00;;;;;16.22;40.77;99080.63;5074191;27;45751;-59
2023/04/26 11:00:15;;;;;;;;;6.00;5.50;;;;;16.30;40.84;99084.47;5074871;27;45474;-60
2023/04/26 11:03:03;;;;;;;;;2.75;2.75;;;;;16.38;40.68;99074.22;5074097;27;45439;-60
2023/04/26 11:05:38;;;;;;;;;4.60;4.40;;;;;16.44;40.18;99070.28;5073514;27;46160;-60
2023/04/26 11:08:05;;;;;;;;;6.40;5.00;;;;;16.49;40.65;99072.66;5073805;27;45383;-60
2023/04/26 11:10:31;;;;;;;;;6.25;5.00;;;;;16.58;40.65;99058.78;5072578;28;45393;-60
2023/04/26 11:13:02;;;;;;;;;4.50;4.50;;;;;16.64;40.70;99058.38;5072687;28;45384;-59
2023/04/26 11:15:29;;;;;;;;;5.00;5.00;;;;;16.69;39.46;99058.94;5073667;27;45501;-60
2023/04/26 11:17:55;;;;;;;;;3.80;3.80;;;;;16.73;39.95;99049.81;5073958;27;45371;-60
2023/04/26 11:20:20;;;;;;;;;4.00;4.00;;;;;16.81;40.55;99043.94;5073958;27;45503;-60
2023/04/26 11:22:45;;;;;;;;;2.75;2.75;;;;;16.88;38.76;99047.94;5074065;27;45448;-60
2023/04/26 11:25:12;;;;;;;;;3.00;0.75;;;;;16.94;37.24;99043.03;5089842;27;45626;-60
2023/04/26 11:27:37;;;;;;;;;4.60;0.80;;;;;16.99;37.96;99038.25;5072652;28;45364;-60
2023/04/26 11:30:04;;;;;;;;;4.00;2.00;;;;;17.06;36.87;99036.03;5073780;27;45393;-60
2023/04/26 11:32:29;;;;;;;;;2.00;2.00;;;;;17.08;37.24;99036.78;5073809;27;45605;-60